Flight Track Log - Related Links

Times and Time Zones

All times are in EDT time to prevent confusion due to time zone crossing. See the N573M flight status page for this flight to view local times or setup timezone preferences in your user account.

Time Position Orientation Groundspeed Altitude Reporting Facility
EDT Latitude Longitude Course Direction KTS MPH feet Rate Location/Type
Wed 07:27:29 PM 41.9081 -91.5883 39° Northeast 244 281 6,100  Level Chicago Center
Wed 07:28:31 PM 41.9947 -91.5856 North 263 303 8,200 2,129 Climbing Chicago Center
Wed 07:29:33 PM 42.0736 -91.5789 North 284 327 10,500 2,274 Climbing Chicago Center
Wed 07:30:35 PM 42.1494 -91.5717 North 279 321 12,900 2,177 Climbing Chicago Center
Wed 07:31:00 PM 42.3350 -91.6667 North  Level FlightAware Approximate
Wed 07:31:37 PM 42.2253 -91.5769 357° North 275 316 15,000  Level Chicago Center
Wed 07:32:00 PM 42.4106 -91.6667 North  Level FlightAware Approximate
Wed 07:32:39 PM 42.3078 -91.5706 North 294 338 16,000  Level Chicago Center
Wed 07:33:41 PM 42.4133 -91.5692 North 317 365 18,100 1,887 Climbing Chicago Center
Wed 07:34:43 PM 42.4961 -91.5631 North 306 352 19,900 1,645 Climbing Chicago Center
Wed 07:35:45 PM 42.5803 -91.5636 360° North 305 351 21,500 1,200 Climbing Chicago Center
Wed 07:36:48 PM 42.6681 -91.5567 North 318 366 22,400 1,584 Climbing Chicago Center
Wed 07:37:50 PM 42.7725 -91.5586 359° North 322 371 24,800 1,258 Climbing Chicago Center
Wed 07:38:52 PM 42.8594 -91.5522 North 328 377 25,000 97 Climbing Chicago Center
Wed 07:39:54 PM 42.9594 -91.5519 360° North 361 415 25,000  Level Chicago Center
Wed 07:40:54 PM 43.0636 -91.5447 North 371 427 25,000  Level Minneapolis Center
Wed 07:41:56 PM 43.1917 -91.5436 360° North 384 442 25,000  Level Minneapolis Center
Wed 07:42:58 PM 43.2975 -91.5369 North 385 443 25,000  Level Minneapolis Center
Wed 07:44:01 PM 43.4056 -91.5344 North 387 445 25,000  Level Minneapolis Center
Wed 07:45:03 PM 43.5131 -91.5294 North 389 448 25,000  Level Minneapolis Center
Wed 07:46:05 PM 43.6203 -91.5269 North 389 448 25,000 -774 Level Minneapolis Center
Wed 07:47:07 PM 43.7481 -91.5214 North 388 447 23,400 -1,887 Descending Minneapolis Center
Wed 07:48:09 PM 43.8506 -91.5175 North 378 435 21,100 -2,226 Descending Minneapolis Center
Wed 07:49:11 PM 43.9506 -91.5144 North 367 422 18,800 -2,177 Descending Minneapolis Center
Wed 07:50:13 PM 44.0492 -91.5103 North 361 415 16,600 -1,887 Descending Minneapolis Center
Wed 07:51:15 PM 44.1469 -91.5100 360° North 348 400 14,900 -1,645 Descending Minneapolis Center
Wed 07:52:17 PM 44.2572 -91.5033 North 335 386 13,200 -1,452 Descending Minneapolis Center
Wed 07:53:19 PM 44.3475 -91.5031 360° North 329 379 11,900 -1,296 Descending Minneapolis Center
Wed 07:54:22 PM 44.4350 -91.4978 North 321 369 10,500 -1,333 Descending Minneapolis Center

Login

Don't have an account? Register now (free) for customized features, flight alerts, and more!